^^
Your Local Weather - Clay, NY Station Historical Data
Daily Summary for February 11, 2017 Units:  Metric    English   Both
« Previous Day
Next Day »
Daily Weekly Monthly Yearly Custom
  High: Low: Average:
Temperature: 2.9 °C -5.6 °C -1.1 °C
Dew Point: -0.8 °C -7.4 °C -4.3 °C
Humidity: 89% 62% 79%
Wind Speed: 4.8km/h 0km/h 1.4km/h
Wind Gust: 9.7km/h - -
Wind- - SSE
Pressure: 1018.2 hPa 1008.7 hPa -
Precipitation: 1.78 mm    
Historical Graphs
 
 
Tabular Data for February 11, 2017
Time Temperature Dew Point Pressure Wind Wind Speed Wind Gust Humidity Rainfall Rate (Hourly) solar
00:02 -5.6 °C -7.4 °C 1012.4 hPa ENE 1.6 km/h 3.2 km/h 87% 0 mm 0 W/m2
00:08 -5.5 °C -7.3 °C 1012.4 hPa ENE 1.6 km/h 3.2 km/h 87% 0 mm 0 W/m2
00:14 -5.4 °C -7.4 °C 1012.4 hPa ENE 1.6 km/h 3.2 km/h 86% 0 mm 0 W/m2
00:20 -5.2 °C -7.2 °C 1012.4 hPa SE 1.6 km/h 1.6 km/h 86% 0 mm 0 W/m2
00:26 -5.2 °C -7.2 °C 1012.4 hPa Calm   1.6 km/h 86% 0 mm 0 W/m2
00:32 -5.1 °C -7.2 °C 1012.1 hPa Calm   1.6 km/h 85% 0 mm 0 W/m2
00:38 -4.9 °C -6.9 °C 1011.7 hPa SE 3.2 km/h 3.2 km/h 86% 0 mm 0 W/m2
00:44 -4.7 °C -6.8 °C 1011.7 hPa SSE 3.2 km/h 8 km/h 85% 0 mm 0 W/m2
00:50 -4.3 °C -6.7 °C 1011.4 hPa SE 3.2 km/h 3.2 km/h 83% 0 mm 0 W/m2
00:56 -4.4 °C -6.8 °C 1011.1 hPa SE 3.2 km/h 3.2 km/h 83% 0 mm 0 W/m2
01:02 -4.5 °C -6.8 °C 1011.1 hPa ESE 1.6 km/h 3.2 km/h 84% 0 mm 0 W/m2
01:08 -4.5 °C -6.8 °C 1010.7 hPa ENE 1.6 km/h 3.2 km/h 84% 0 mm 0 W/m2
01:14 -4.6 °C -6.8 °C 1010.7 hPa Calm   3.2 km/h 84% 0 mm 0 W/m2
01:20 -4.4 °C -6.7 °C 1010.7 hPa ENE 1.6 km/h 1.6 km/h 84% 0 mm 0 W/m2
01:26 -4.2 °C -6.7 °C 1010.4 hPa ENE 1.6 km/h 1.6 km/h 83% 0 mm 0 W/m2
01:32 -4.3 °C -6.8 °C 1010.4 hPa Calm   1.6 km/h 83% 0 mm 0 W/m2
01:38 -4.2 °C -6.7 °C 1010 hPa Calm   1.6 km/h 83% 0 mm 0 W/m2
01:44 -4.1 °C -6.6 °C 1010 hPa ENE 1.6 km/h 3.2 km/h 83% 0 mm 0 W/m2
01:46 -4.2 °C -6.6 °C 1010 hPa ENE 1.6 km/h 3.2 km/h 83% 0 mm 0 W/m2
01:52 -4.2 °C -6.5 °C 1010 hPa ENE 1.6 km/h 1.6 km/h 84% 0 mm 0 W/m2
01:58 -3.7 °C -6.6 °C 1010 hPa SE 3.2 km/h 9.7 km/h 80% 0 mm 0 W/m2
02:04 -3.6 °C -6.6 °C 1010 hPa SE 3.2 km/h 3.2 km/h 80% 0 mm 0 W/m2
02:10 -3.7 °C -6.6 °C 1010 hPa SE 1.6 km/h 1.6 km/h 80% 0 mm 0 W/m2
02:16 -3.8 °C -6.6 °C 1010 hPa East 1.6 km/h 4.8 km/h 81% 0 mm 0 W/m2
02:22 -3.8 °C -6.6 °C 1010 hPa East 3.2 km/h 3.2 km/h 81% 0 mm 0 W/m2
02:28 -3.7 °C -6.6 °C 1010 hPa East 1.6 km/h 3.2 km/h 80% 0 mm 0 W/m2
02:34 -3.7 °C -6.7 °C 1009.7 hPa East 1.6 km/h 1.6 km/h 80% 0 mm 0 W/m2
02:40 -3.8 °C -6.6 °C 1009.7 hPa East 1.6 km/h 1.6 km/h 81% 0 mm 0 W/m2
02:46 -3.8 °C -6.6 °C 1009.7 hPa ESE 1.6 km/h 4.8 km/h 81% 0 mm 0 W/m2
02:52 -3.8 °C -6.6 °C 1009.4 hPa ENE 3.2 km/h 4.8 km/h 81% 0 mm 0 W/m2
02:58 -3.8 °C -6.6 °C 1009.4 hPa East 3.2 km/h 4.8 km/h 81% 0 mm 0 W/m2
03:04 -3.7 °C -6.7 °C 1009.4 hPa ENE 3.2 km/h 8 km/h 80% 0 mm 0 W/m2
03:10 -3.8 °C -6.6 °C 1009.4 hPa ENE 3.2 km/h 3.2 km/h 81% 0 mm 0 W/m2
03:16 -3.7 °C -6.7 °C 1009.4 hPa East 1.6 km/h 3.2 km/h 80% 0 mm 0 W/m2
03:22 -3.7 °C -6.6 °C 1009.4 hPa ENE 3.2 km/h 4.8 km/h 80% 0 mm 0 W/m2
03:28 -3.7 °C -6.6 °C 1009.4 hPa ENE 1.6 km/h 4.8 km/h 80% 0 mm 0 W/m2
03:34 -3.6 °C -6.6 °C 1009.4 hPa Calm   1.6 km/h 80% 0 mm 0 W/m2
03:40 -3.7 °C -6.6 °C 1009.4 hPa East 1.6 km/h 3.2 km/h 80% 0 mm 0 W/m2
03:46 -3.6 °C -6.6 °C 1009.4 hPa East 1.6 km/h 3.2 km/h 80% 0 mm 0 W/m2
03:52 -3.7 °C -6.6 °C 1009 hPa Calm   1.6 km/h 80% 0 mm 0 W/m2
03:58 -3.7 °C -6.6 °C 1009 hPa SE 1.6 km/h 3.2 km/h 80% 0 mm 0 W/m2
04:04 -3.6 °C -6.7 °C 1009 hPa East 1.6 km/h 3.2 km/h 79% 0 mm 0 W/m2
04:10 -3.5 °C -6.8 °C 1009 hPa SE 1.6 km/h 1.6 km/h 78% 0 mm 0 W/m2
04:16 -3.4 °C -6.8 °C 1008.7 hPa ESE 1.6 km/h 6.4 km/h 77% 0 mm 0 W/m2
04:22 -3.2 °C -6.7 °C 1009 hPa ESE 3.2 km/h 3.2 km/h 77% 0 mm 0 W/m2
04:28 -3.1 °C -6.7 °C 1009 hPa SE 1.6 km/h 6.4 km/h 76% 0 mm 0 W/m2
04:34 -3.1 °C -6.7 °C 1009 hPa SE 1.6 km/h 3.2 km/h 76% 0 mm 0 W/m2
04:40 -3.1 °C -6.7 °C 1009 hPa SE 1.6 km/h 1.6 km/h 76% 0 mm 0 W/m2
04:46 -3.1 °C -6.6 °C 1009 hPa Calm   1.6 km/h 77% 0 mm 0 W/m2
04:52 -3.2 °C -6.6 °C 1009 hPa Calm   1.6 km/h 77% 0 mm 0 W/m2
04:58 -3.2 °C -6.5 °C 1009 hPa ENE 1.6 km/h 3.2 km/h 78% 0 mm 0 W/m2
05:04 -3.2 °C -6.5 °C 1009 hPa ENE 1.6 km/h 3.2 km/h 78% 0 mm 0 W/m2
05:10 -3.2 °C -6.7 °C 1009 hPa ENE 1.6 km/h 1.6 km/h 77% 0 mm 0 W/m2
05:16 -3.3 °C -6.3 °C 1009 hPa ENE 1.6 km/h 3.2 km/h 80% 0 mm 0 W/m2
05:22 -3.4 °C -6.2 °C 1009 hPa ENE 1.6 km/h 3.2 km/h 81% 0 mm 0 W/m2
05:28 -3.4 °C -6.5 °C 1008.7 hPa ENE 1.6 km/h 4.8 km/h 79% 0 mm 0 W/m2
05:34 -3.3 °C -6.6 °C 1008.7 hPa ENE 3.2 km/h 4.8 km/h 78% 0 mm 0 W/m2
05:40 -3.3 °C -6.6 °C 1009 hPa ENE 3.2 km/h 3.2 km/h 78% 0 mm 0 W/m2
05:46 -3.3 °C -6.4 °C 1009 hPa ENE 3.2 km/h 3.2 km/h 79% 0 mm 0 W/m2
05:52 -3.3 °C -6.6 °C 1009 hPa ENE 3.2 km/h 3.2 km/h 78% 0 mm 0 W/m2
05:58 -3.4 °C -6.5 °C 1008.7 hPa ENE 1.6 km/h 3.2 km/h 79% 0 mm 0 W/m2
06:04 -3.4 °C -6.6 °C 1008.7 hPa ENE 1.6 km/h 3.2 km/h 79% 0 mm 0 W/m2
06:10 -3.4 °C -6.5 °C 1009 hPa ENE 3.2 km/h 6.4 km/h 79% 0 mm 0 W/m2
06:16 -3.4 °C -6.5 °C 1009 hPa ENE 1.6 km/h 6.4 km/h 79% 0 mm 0 W/m2
06:22 -3.4 °C -6.4 °C 1009 hPa NE 1.6 km/h 4.8 km/h 80% 0 mm 0 W/m2
06:28 -3.6 °C -6.5 °C 1009 hPa East 3.2 km/h 8 km/h 80% 0 mm 0 W/m2
06:34 -3.6 °C -6.4 °C 1009 hPa ENE 3.2 km/h 3.2 km/h 81% 0 mm 0 W/m2
06:40 -3.7 °C -6.5 °C 1009 hPa ENE 1.6 km/h 4.8 km/h 81% 0 mm 0 W/m2
06:46 -3.8 °C -6.7 °C 1009 hPa ENE 3.2 km/h 4.8 km/h 80% 0 mm 0 W/m2
06:52 -3.8 °C -6.7 °C 1009 hPa NE 4.8 km/h 4.8 km/h 80% 0 mm 0 W/m2
06:58 -3.8 °C -6.6 °C 1009.4 hPa NE 3.2 km/h 4.8 km/h 81% 0 mm 0 W/m2
07:04 -3.8 °C -6.6 °C 1009.4 hPa ENE 3.2 km/h 6.4 km/h 81% 0 mm 0 W/m2
07:10 -3.9 °C -6.7 °C 1009.7 hPa ENE 3.2 km/h 3.2 km/h 81% 0 mm 0 W/m2
07:16 -3.9 °C -6.7 °C 1009.7 hPa ENE 1.6 km/h 4.8 km/h 81% 0 mm 0 W/m2
07:22 -3.9 °C -6.7 °C 1009.7 hPa ENE 1.6 km/h 1.6 km/h 81% 0 mm 0 W/m2
07:28 -3.9 °C -6.7 °C 1009.7 hPa East 1.6 km/h 3.2 km/h 81% 0 mm 5 W/m2
07:34 -3.9 °C -6.7 °C 1009.7 hPa East 1.6 km/h 1.6 km/h 81% 0 mm 7 W/m2
07:40 -3.8 °C -6.6 °C 1009.7 hPa ENE 1.6 km/h 1.6 km/h 81% 0 mm 18 W/m2
07:46 -3.7 °C -6.5 °C 1009.7 hPa ENE 1.6 km/h 3.2 km/h 81% 0 mm 23 W/m2
07:52 -3.7 °C -6.4 °C 1009.7 hPa ENE 1.6 km/h 3.2 km/h 81% 0 mm 30 W/m2
07:58 -3.6 °C -6.4 °C 1009.7 hPa East 1.6 km/h 3.2 km/h 81% 0 mm 40 W/m2
08:04 -3.6 °C -6.5 °C 1009.7 hPa ENE 1.6 km/h 1.6 km/h 80% 0 mm 44 W/m2
08:10 -3.4 °C -6.4 °C 1009.7 hPa ENE 3.2 km/h 3.2 km/h 80% 0 mm 51 W/m2
08:16 -3.3 °C -6.3 °C 1009.7 hPa ENE 3.2 km/h 3.2 km/h 80% 0 mm 65 W/m2
08:22 -3.3 °C -6.4 °C 1009.7 hPa ENE 1.6 km/h 4.8 km/h 79% 0 mm 39 W/m2
08:28 -3.2 °C -6.3 °C 1010 hPa ENE 1.6 km/h 4.8 km/h 79% 0 mm 46 W/m2
08:34 -3.1 °C -6.2 °C 1010 hPa ENE 1.6 km/h 3.2 km/h 79% 0 mm 72 W/m2
08:40 -3 °C -6.3 °C 1010 hPa ENE 1.6 km/h 1.6 km/h 78% 0 mm 72 W/m2
08:46 -2.8 °C -6.1 °C 1010 hPa Calm   1.6 km/h 78% 0 mm 63 W/m2
08:52 -2.8 °C -6.3 °C 1010.4 hPa ENE 1.6 km/h 3.2 km/h 77% 0 mm 83 W/m2
08:58 -2.8 °C -6.3 °C 1010 hPa ENE 1.6 km/h 3.2 km/h 77% 0 mm 88 W/m2
09:04 -2.7 °C -6.2 °C 1010 hPa East 3.2 km/h 3.2 km/h 77% 0 mm 93 W/m2
09:10 -2.7 °C -6.3 °C 1010.4 hPa East 3.2 km/h 3.2 km/h 76% 0 mm 91 W/m2
09:16 -2.6 °C -6.2 °C 1010.4 hPa East 1.6 km/h 4.8 km/h 76% 0 mm 100 W/m2
09:22 -2.4 °C -6.1 °C 1010.4 hPa East 1.6 km/h 3.2 km/h 76% 0 mm 102 W/m2
09:28 -2.4 °C -6.2 °C 1010.4 hPa East 1.6 km/h 4.8 km/h 75% 0 mm 111 W/m2
09:34 -2.2 °C -6.1 °C 1010.4 hPa East 1.6 km/h 3.2 km/h 75% 0 mm 130 W/m2
09:40 -2.1 °C -5.9 °C 1010.4 hPa East 1.6 km/h 1.6 km/h 75% 0 mm 167 W/m2
09:46 -1.9 °C -5.9 °C 1010.7 hPa East 1.6 km/h 1.6 km/h 74% 0 mm 130 W/m2
09:52 -1.8 °C -5.8 °C 1010.7 hPa East 1.6 km/h 3.2 km/h 74% 0 mm 114 W/m2
09:58 -1.7 °C -5.7 °C 1010.7 hPa East 1.6 km/h 3.2 km/h 74% 0 mm 134 W/m2
10:04 -1.6 °C -5.8 °C 1010.7 hPa ENE 1.6 km/h 4.8 km/h 73% 0 mm 146 W/m2
10:10 -1.7 °C -5.9 °C 1010.7 hPa ENE 1.6 km/h 1.6 km/h 73% 0 mm 156 W/m2
10:16 -1.6 °C -5.8 °C 1010.7 hPa NE 3.2 km/h 3.2 km/h 73% 0 mm 153 W/m2
10:22 -1.5 °C -5.7 °C 1010.7 hPa NE 1.6 km/h 3.2 km/h 73% 0 mm 155 W/m2
10:28 -1.4 °C -5.6 °C 1010.7 hPa ENE 1.6 km/h 3.2 km/h 73% 0 mm 176 W/m2
10:34 -1.2 °C -5.4 °C 1010.7 hPa Calm   4.8 km/h 73% 0 mm 174 W/m2
10:40 -1.2 °C -5.4 °C 1011.1 hPa ESE 1.6 km/h 1.6 km/h 73% 0 mm 162 W/m2
10:46 -1 °C -5.2 °C 1010.7 hPa ESE 1.6 km/h 1.6 km/h 73% 0 mm 171 W/m2
10:52 -0.7 °C -5.2 °C 1010.7 hPa Calm     72% 0 mm 171 W/m2
10:58 -0.7 °C -5.3 °C 1011.1 hPa Calm   3.2 km/h 71% 0 mm 163 W/m2
11:04 -0.6 °C -5.2 °C 1011.1 hPa ESE 1.6 km/h 3.2 km/h 71% 0 mm 171 W/m2
11:10 -0.4 °C -5.1 °C 1011.1 hPa ESE 1.6 km/h 1.6 km/h 71% 0 mm 179 W/m2
11:16 -0.4 °C -5.2 °C 1011.1 hPa NE 1.6 km/h 3.2 km/h 70% 0 mm 185 W/m2
11:22 -0.3 °C -4.9 °C 1011.1 hPa NE 1.6 km/h 1.6 km/h 71% 0 mm 197 W/m2
11:28 -0.1 °C -5.1 °C 1011.1 hPa Calm   1.6 km/h 69% 0 mm 207 W/m2
11:34 0.2 °C -5 °C 1011.4 hPa NE 1.6 km/h 3.2 km/h 68% 0 mm 158 W/m2
11:40 0.3 °C -4.9 °C 1011.4 hPa Calm   3.2 km/h 68% 0 mm 188 W/m2
11:46 0.2 °C -5 °C 1011.4 hPa NE 1.6 km/h 3.2 km/h 68% 0 mm 188 W/m2
11:52 0.3 °C -4.9 °C 1011.4 hPa NE 1.6 km/h 3.2 km/h 68% 0 mm 179 W/m2
11:58 0.4 °C -4.7 °C 1011.7 hPa North 1.6 km/h 3.2 km/h 69% 0 mm 185 W/m2
12:04 0.4 °C -4.8 °C 1011.4 hPa NNE 1.6 km/h 4.8 km/h 68% 0 mm 186 W/m2
12:12 0.4 °C -4.8 °C 1011.7 hPa NNE 3.2 km/h 3.2 km/h 68% 0 mm 148 W/m2
12:18 0.4 °C -4.8 °C 1011.7 hPa NNE 3.2 km/h 3.2 km/h 68% 0 mm 141 W/m2
12:24 0.6 °C -4.7 °C 1012.1 hPa NNE 3.2 km/h 3.2 km/h 68% 0 mm 141 W/m2
12:30 0.6 °C -4.9 °C 1012.1 hPa NNE 1.6 km/h 1.6 km/h 67% 0 mm 130 W/m2
12:36 0.7 °C -4.8 °C 1012.1 hPa Calm   1.6 km/h 67% 0 mm 135 W/m2
12:42 0.7 °C -4.8 °C 1012.1 hPa Calm     67% 0 mm 141 W/m2
12:48 0.8 °C -4.7 °C 1012.1 hPa Calm     67% 0 mm 172 W/m2
12:54 0.9 °C -4.5 °C 1011.7 hPa Calm     67% 0 mm 243 W/m2
13:00 1.3 °C -4.4 °C 1012.1 hPa Calm     66% 0 mm 193 W/m2
13:06 1.6 °C -4.1 °C 1012.1 hPa Calm     66% 0 mm 135 W/m2
13:12 1.7 °C -4 °C 1012.1 hPa Calm     66% 0 mm 137 W/m2
13:18 1.9 °C -4 °C 1012.1 hPa Calm     65% 0 mm 148 W/m2
13:24 1.9 °C -4.2 °C 1012.1 hPa Calm     64% 0 mm 172 W/m2
13:30 2.1 °C -4.2 °C 1012.1 hPa Calm     63% 0 mm 179 W/m2
13:36 2.4 °C -3.9 °C 1012.1 hPa Calm     63% 0 mm 162 W/m2
13:42 2.5 °C -4.1 °C 1012.1 hPa Calm     62% 0 mm 167 W/m2
13:48 2.4 °C -4.1 °C 1012.1 hPa Calm     62% 0 mm 186 W/m2
13:54 2.4 °C -3.9 °C 1012.1 hPa Calm   3.2 km/h 63% 0 mm 163 W/m2
14:00 2.3 °C -4 °C 1012.4 hPa Calm     63% 0 mm 134 W/m2
14:06 2.4 °C -3.7 °C 1012.4 hPa Calm     64% 0 mm 128 W/m2
14:12 2.4 °C -3.5 °C 1012.8 hPa Calm     65% 0 mm 116 W/m2
14:18 2.6 °C -3.5 °C 1012.8 hPa Calm     64% 0 mm 118 W/m2
14:24 2.7 °C -3.4 °C 1012.8 hPa Calm   3.2 km/h 64% 0 mm 127 W/m2
14:30 2.7 °C -3.2 °C 1012.8 hPa Calm     65% 0 mm 120 W/m2
14:36 2.8 °C -2.9 °C 1012.8 hPa Calm     66% 0 mm 104 W/m2
14:42 2.8 °C -2.9 °C 1012.8 hPa Calm     66% 0 mm 121 W/m2
14:48 2.9 °C -2.7 °C 1013.1 hPa Calm     67% 0 mm 109 W/m2
14:54 2.9 °C -2.4 °C 1013.1 hPa Calm     68% 0 mm 95 W/m2
15:00 2.9 °C -2 °C 1013.1 hPa Calm   1.6 km/h 70% 0 mm 70 W/m2
15:06 2.9 °C -1.7 °C 1013.4 hPa NW 1.6 km/h 1.6 km/h 72% 0 mm 58 W/m2
15:12 2.8 °C -1.7 °C 1013.4 hPa NW 1.6 km/h 1.6 km/h 72% 0 mm 67 W/m2
15:18 2.8 °C -1.6 °C 1013.8 hPa Calm   3.2 km/h 73% 0 mm 60 W/m2
15:24 2.7 °C -1.7 °C 1013.8 hPa WNW 1.6 km/h 4.8 km/h 73% 0 mm 54 W/m2
15:30 2.6 °C -1.7 °C 1013.4 hPa WNW 3.2 km/h 3.2 km/h 73% 0 mm 54 W/m2
15:36 2.6 °C -1.6 °C 1013.4 hPa WNW 1.6 km/h 3.2 km/h 74% 0 mm 51 W/m2
15:42 2.6 °C -1.6 °C 1013.4 hPa Calm   3.2 km/h 74% 0 mm 53 W/m2
15:48 2.6 °C -1.6 °C 1013.8 hPa WNW 1.6 km/h 4.8 km/h 74% 0 mm 56 W/m2
15:54 2.6 °C -1.6 °C 1014.1 hPa WNW 1.6 km/h 4.8 km/h 74% 0 mm 44 W/m2
16:00 2.6 °C -1.6 °C 1013.8 hPa WNW 1.6 km/h 1.6 km/h 74% 0 mm 47 W/m2
16:06 2.5 °C -1.7 °C 1014.1 hPa WNW 1.6 km/h 4.8 km/h 74% 0 mm 35 W/m2
16:12 2.4 °C -1.6 °C 1014.1 hPa WNW 1.6 km/h 3.2 km/h 75% 0 mm 33 W/m2
16:18 2.4 °C -1.6 °C 1014.4 hPa WNW 1.6 km/h 3.2 km/h 75% 0 mm 37 W/m2
16:24 2.4 °C -1.6 °C 1014.4 hPa WNW 1.6 km/h 1.6 km/h 75% 0 mm 30 W/m2
16:30 2.4 °C -1.6 °C 1014.8 hPa Calm     75% 0 mm 25 W/m2
16:36 2.3 °C -1.3 °C 1014.8 hPa WNW 3.2 km/h 6.4 km/h 77% 0 mm 21 W/m2
16:38 2.3 °C -1.3 °C 1014.8 hPa WNW 3.2 km/h 6.4 km/h 77% 0 mm 19 W/m2
16:44 2.1 °C -1.2 °C 1014.8 hPa WNW 4.8 km/h 6.4 km/h 79% 0 mm 14 W/m2
16:50 1.9 °C -1 °C 1014.8 hPa NW 3.2 km/h 3.2 km/h 81% 0 mm 14 W/m2
16:56 1.8 °C -0.9 °C 1015.1 hPa NW 3.2 km/h 3.2 km/h 82% 0 mm 12 W/m2
17:02 1.7 °C -0.8 °C 1015.1 hPa NW 1.6 km/h 1.6 km/h 83% 0 mm 12 W/m2
17:08 1.7 °C -0.9 °C 1015.1 hPa NW 1.6 km/h 4.8 km/h 83% 0 mm 7 W/m2
17:14 1.6 °C -0.9 °C 1015.1 hPa NW 1.6 km/h 1.6 km/h 83% 0 mm 0 W/m2
17:22 1.6 °C -1 °C 1015.1 hPa NW 1.6 km/h 3.2 km/h 83% 0 mm 0 W/m2
17:28 1.5 °C -1.1 °C 1015.5 hPa WNW 3.2 km/h 6.4 km/h 83% 0 mm 0 W/m2
17:34 1.4 °C -1.1 °C 1015.5 hPa NW 1.6 km/h 3.2 km/h 83% 0 mm 0 W/m2
17:40 1.4 °C -1.2 °C 1015.8 hPa NW 1.6 km/h 3.2 km/h 83% 0 mm 0 W/m2
17:46 1.3 °C -1.1 °C 1015.5 hPa NW 1.6 km/h 3.2 km/h 84% 0 mm 0 W/m2
17:52 1.2 °C -1.2 °C 1015.8 hPa NW 1.6 km/h 1.6 km/h 84% 0 mm 0 W/m2
17:58 1.2 °C -1.1 °C 1015.8 hPa NW 1.6 km/h 3.2 km/h 85% 0 mm 0 W/m2
18:04 1.1 °C -1.1 °C 1015.8 hPa NW 1.6 km/h 3.2 km/h 85% 0 mm 0 W/m2
18:10 1.1 °C -1.1 °C 1015.8 hPa Calm     85% 0 mm 0 W/m2
18:16 1.1 °C -1.2 °C 1016.1 hPa Calm   1.6 km/h 85% 0 mm 0 W/m2
18:22 1.1 °C -1.2 °C 1016.1 hPa Calm   1.6 km/h 85% 0 mm 0 W/m2
18:28 1 °C -1.1 °C 1016.1 hPa Calm   1.6 km/h 86% 0 mm 0 W/m2
18:34 0.9 °C -1.1 °C 1016.1 hPa Calm   1.6 km/h 86% 0 mm 0 W/m2
18:40 0.9 °C -1.3 °C 1016.1 hPa Calm     85% 0 mm 0 W/m2
18:46 0.9 °C -1.2 °C 1016.5 hPa Calm     86% 0 mm 0 W/m2
18:52 0.8 °C -1.2 °C 1016.5 hPa Calm     86% 0 mm 0 W/m2
18:58 0.8 °C -1.3 °C 1016.8 hPa Calm     86% 0 mm 0 W/m2
19:04 0.8 °C -1.3 °C 1016.8 hPa Calm   1.6 km/h 86% 0 mm 0 W/m2
19:10 0.8 °C -1.3 °C 1016.8 hPa Calm     86% 0 mm 0 W/m2
19:16 0.7 °C -1.3 °C 1016.8 hPa Calm     86% 0 mm 0 W/m2
19:22 0.7 °C -1.2 °C 1017.2 hPa Calm     87% 0 mm 0 W/m2
19:28 0.7 °C -1.2 °C 1017.2 hPa Calm   1.6 km/h 87% 0 mm 0 W/m2
19:34 0.7 °C -1.2 °C 1017.2 hPa Calm     87% 0 mm 0 W/m2
19:40 0.7 °C -1.2 °C 1017.2 hPa Calm     87% 0 mm 0 W/m2
19:46 0.6 °C -1.3 °C 1017.2 hPa Calm     87% 0 mm 0 W/m2
19:52 0.6 °C -1.3 °C 1017.2 hPa Calm     87% 0 mm 0 W/m2
19:58 0.6 °C -1.3 °C 1017.5 hPa Calm     87% 0 mm 0 W/m2
20:04 0.6 °C -1.2 °C 1017.5 hPa Calm     88% 0 mm 0 W/m2
20:10 0.6 °C -1.2 °C 1017.8 hPa Calm     88% 0 mm 0 W/m2
20:16 0.6 °C -1.2 °C 1017.8 hPa Calm     88% 0 mm 0 W/m2
20:22 0.5 °C -1.3 °C 1017.5 hPa Calm   3.2 km/h 88% 0 mm 0 W/m2
20:28 0.5 °C -1.3 °C 1017.5 hPa Calm   3.2 km/h 88% 0 mm 0 W/m2
20:34 0.5 °C -1.3 °C 1017.5 hPa Calm   1.6 km/h 88% 0 mm 0 W/m2
20:40 0.5 °C -1.4 °C 1017.5 hPa Calm     87% 0 mm 0 W/m2
20:46 0.4 °C -1.4 °C 1017.8 hPa NW 1.6 km/h 3.2 km/h 87% 0 mm 0 W/m2
20:52 0.4 °C -1.5 °C 1017.8 hPa NNW 3.2 km/h 4.8 km/h 87% 0 mm 0 W/m2
20:58 0.3 °C -1.6 °C 1017.8 hPa North 4.8 km/h 6.4 km/h 87% 0 mm 0 W/m2
21:04 0.2 °C -1.9 °C 1017.8 hPa North 3.2 km/h 4.8 km/h 86% 0 mm 0 W/m2
21:10 0.1 °C -1.8 °C 1017.8 hPa North 1.6 km/h 3.2 km/h 87% 0 mm 0 W/m2
21:16 0.1 °C -2 °C 1017.8 hPa North 1.6 km/h 4.8 km/h 86% 0 mm 0 W/m2
21:22 -0.1 °C -2.1 °C 1017.8 hPa North 3.2 km/h 3.2 km/h 86% 0 mm 0 W/m2
21:28 -0.1 °C -2.2 °C 1017.8 hPa North 1.6 km/h 3.2 km/h 86% 0 mm 0 W/m2
21:34 -0.2 °C -2.2 °C 1017.8 hPa North 1.6 km/h 1.6 km/h 86% 0 mm 0 W/m2
21:40 -0.2 °C -2.3 °C 1018.2 hPa North 1.6 km/h 1.6 km/h 86% 0 mm 0 W/m2
21:46 -0.3 °C -2.2 °C 1018.2 hPa North 1.6 km/h 1.6 km/h 87% 0 mm 0 W/m2
21:52 -0.3 °C -2.2 °C 1018.2 hPa Calm   1.6 km/h 87% 0 mm 0 W/m2
21:58 -0.4 °C -2.3 °C 1018.2 hPa NNW 1.6 km/h 6.4 km/h 87% 0 mm 0 W/m2
22:04 -0.5 °C -2.4 °C 1018.2 hPa NNW 3.2 km/h 3.2 km/h 87% 0 mm 0 W/m2
22:12 -0.6 °C -2.5 °C 1018.2 hPa NNW 1.6 km/h 4.8 km/h 87% 0 mm 0 W/m2
22:18 -0.7 °C -2.6 °C 1017.8 hPa NNW 1.6 km/h 4.8 km/h 87% 0 mm 0 W/m2
22:24 -0.8 °C -2.7 °C 1017.8 hPa NNW 3.2 km/h 4.8 km/h 87% 0 mm 0 W/m2
22:30 -0.9 °C -2.8 °C 1018.2 hPa NNW 1.6 km/h 1.6 km/h 87% 0 mm 0 W/m2
22:36 -1 °C -2.7 °C 1018.2 hPa NNW 1.6 km/h 4.8 km/h 88% 0 mm 0 W/m2
22:42 -1.2 °C -2.9 °C 1018.2 hPa NNW 1.6 km/h 1.6 km/h 88% 0 mm 0 W/m2
22:48 -1.3 °C -3 °C 1018.2 hPa NNW 1.6 km/h 3.2 km/h 88% 0 mm 0 W/m2
22:54 -1.3 °C -3.1 °C 1018.2 hPa NNW 1.6 km/h 3.2 km/h 88% 0 mm 0 W/m2
23:00 -1.4 °C -3.1 °C 1017.8 hPa Calm     88% 0 mm 0 W/m2
23:06 -1.4 °C -3.2 °C 1017.8 hPa Calm   3.2 km/h 88% 0 mm 0 W/m2
23:12 -1.5 °C -3.1 °C 1018.2 hPa NNW 1.6 km/h 1.6 km/h 89% 0 mm 0 W/m2
23:18 -1.5 °C -3.2 °C 1018.2 hPa Calm   1.6 km/h 88% 0 mm 0 W/m2
23:24 -1.6 °C -3.3 °C 1018.2 hPa Calm     88% 0 mm 0 W/m2
23:30 -1.6 °C -3.1 °C 1018.2 hPa Calm     89% 0 mm 0 W/m2
23:36 -1.6 °C -3.1 °C 1018.2 hPa Calm     89% 0 mm 0 W/m2
23:42 -1.6 °C -3.1 °C 1018.2 hPa Calm     89% 0 mm 0 W/m2
23:48 -1.6 °C -3.1 °C 1018.2 hPa Calm   1.6 km/h 89% 0 mm 0 W/m2
23:54 -1.6 °C -3.1 °C 1017.8 hPa Calm     89% 0 mm 0 W/m2
Country Meadow, Clay, NY, USA
Compliments of Weather Underground - 2 mb